sensor_id;sensor_type;location;lat;lon;timestamp;P1;durP1;ratioP1;P2;durP2;ratioP2
75928;SDS011;64606;44.062;2.986;2023-07-02T00:19:18;34.28;;;19.75;;
75928;SDS011;64606;44.062;2.986;2023-07-02T05:44:02;8.65;;;4.40;;
75928;SDS011;64606;44.062;2.986;2023-07-02T05:59:06;3.28;;;2.20;;
75928;SDS011;64606;44.062;2.986;2023-07-02T06:25:14;4.97;;;1.90;;
75928;SDS011;64606;44.062;2.986;2023-07-02T06:40:24;2.97;;;1.58;;
75928;SDS011;64606;44.062;2.986;2023-07-02T08:01:36;1.65;;;0.50;;
75928;SDS011;64606;44.062;2.986;2023-07-02T08:04:02;1.20;;;0.55;;
75928;SDS011;64606;44.062;2.986;2023-07-02T08:06:28;1.00;;;0.60;;
75928;SDS011;64606;44.062;2.986;2023-07-02T08:15:23;0.57;;;0.57;;
75928;SDS011;64606;44.062;2.986;2023-07-02T08:17:53;1.17;;;0.73;;
75928;SDS011;64606;44.062;2.986;2023-07-02T08:20:42;1.13;;;0.70;;
75928;SDS011;64606;44.062;2.986;2023-07-02T08:29:11;0.90;;;0.73;;
75928;SDS011;64606;44.062;2.986;2023-07-02T08:32:30;0.70;;;0.70;;
75928;SDS011;64606;44.062;2.986;2023-07-02T08:50:50;1.20;;;1.08;;
75928;SDS011;64606;44.062;2.986;2023-07-02T08:53:16;2.65;;;1.10;;
75928;SDS011;64606;44.062;2.986;2023-07-02T08:55:42;2.15;;;0.95;;
75928;SDS011;64606;44.062;2.986;2023-07-02T08:58:11;3.15;;;1.55;;
75928;SDS011;64606;44.062;2.986;2023-07-02T09:00:37;1.40;;;0.90;;
75928;SDS011;64606;44.062;2.986;2023-07-02T09:03:13;0.98;;;0.80;;
75928;SDS011;64606;44.062;2.986;2023-07-02T09:05:52;1.77;;;1.30;;
75928;SDS011;64606;44.062;2.986;2023-07-02T09:10:51;1.70;;;1.30;;
75928;SDS011;64606;44.062;2.986;2023-07-02T09:13:17;1.25;;;1.15;;
75928;SDS011;64606;44.062;2.986;2023-07-02T09:15:43;2.28;;;0.90;;
75928;SDS011;64606;44.062;2.986;2023-07-02T09:20:42;1.95;;;0.93;;
75928;SDS011;64606;44.062;2.986;2023-07-02T09:23:08;1.52;;;1.00;;
75928;SDS011;64606;44.062;2.986;2023-07-02T09:25:38;1.92;;;1.10;;
75928;SDS011;64606;44.062;2.986;2023-07-02T09:28:20;1.30;;;1.10;;
75928;SDS011;64606;44.062;2.986;2023-07-02T09:30:57;3.58;;;1.13;;
75928;SDS011;64606;44.062;2.986;2023-07-02T09:33:29;1.40;;;1.00;;
75928;SDS011;64606;44.062;2.986;2023-07-02T09:35:56;2.70;;;1.20;;
75928;SDS011;64606;44.062;2.986;2023-07-02T09:38:22;1.20;;;1.10;;
75928;SDS011;64606;44.062;2.986;2023-07-02T09:40:49;2.60;;;1.08;;
75928;SDS011;64606;44.062;2.986;2023-07-02T09:43:16;1.20;;;1.00;;
75928;SDS011;64606;44.062;2.986;2023-07-02T09:45:50;1.73;;;1.10;;
75928;SDS011;64606;44.062;2.986;2023-07-02T09:48:16;2.93;;;1.13;;
75928;SDS011;64606;44.062;2.986;2023-07-02T09:50:43;1.00;;;0.88;;
75928;SDS011;64606;44.062;2.986;2023-07-02T09:53:10;1.45;;;1.08;;
75928;SDS011;64606;44.062;2.986;2023-07-02T09:55:39;1.30;;;1.10;;
75928;SDS011;64606;44.062;2.986;2023-07-02T09:58:05;1.63;;;1.15;;
75928;SDS011;64606;44.062;2.986;2023-07-02T10:00:32;1.92;;;1.20;;
75928;SDS011;64606;44.062;2.986;2023-07-02T10:02:58;2.67;;;1.33;;
75928;SDS011;64606;44.062;2.986;2023-07-02T10:05:34;1.77;;;1.00;;
75928;SDS011;64606;44.062;2.986;2023-07-02T10:08:14;2.83;;;1.48;;
75928;SDS011;64606;44.062;2.986;2023-07-02T10:10:42;2.17;;;1.25;;
75928;SDS011;64606;44.062;2.986;2023-07-02T10:13:08;2.50;;;1.30;;
75928;SDS011;64606;44.062;2.986;2023-07-02T10:15:34;2.08;;;1.52;;
75928;SDS011;64606;44.062;2.986;2023-07-02T10:18:04;2.40;;;1.33;;
75928;SDS011;64606;44.062;2.986;2023-07-02T10:20:31;2.38;;;1.27;;
75928;SDS011;64606;44.062;2.986;2023-07-02T10:22:58;1.85;;;1.20;;
75928;SDS011;64606;44.062;2.986;2023-07-02T10:25:25;2.13;;;1.38;;
75928;SDS011;64606;44.062;2.986;2023-07-02T10:27:51;1.58;;;1.15;;
75928;SDS011;64606;44.062;2.986;2023-07-02T10:30:17;2.28;;;1.25;;
75928;SDS011;64606;44.062;2.986;2023-07-02T10:32:43;2.10;;;1.30;;
75928;SDS011;64606;44.062;2.986;2023-07-02T10:35:16;4.15;;;1.40;;
75928;SDS011;64606;44.062;2.986;2023-07-02T10:37:42;2.42;;;1.50;;
75928;SDS011;64606;44.062;2.986;2023-07-02T10:40:09;4.55;;;2.13;;
75928;SDS011;64606;44.062;2.986;2023-07-02T10:45:33;3.53;;;1.88;;
75928;SDS011;64606;44.062;2.986;2023-07-02T10:48:01;2.70;;;1.67;;
75928;SDS011;64606;44.062;2.986;2023-07-02T10:50:29;3.42;;;1.60;;
75928;SDS011;64606;44.062;2.986;2023-07-02T10:52:55;2.65;;;1.77;;
75928;SDS011;64606;44.062;2.986;2023-07-02T10:55:22;3.60;;;2.20;;
75928;SDS011;64606;44.062;2.986;2023-07-02T10:57:49;4.18;;;1.92;;
75928;SDS011;64606;44.062;2.986;2023-07-02T11:00:19;4.03;;;1.95;;
75928;SDS011;64606;44.062;2.986;2023-07-02T11:02:45;3.15;;;2.20;;
75928;SDS011;64606;44.062;2.986;2023-07-02T11:05:11;4.88;;;2.47;;
75928;SDS011;64606;44.062;2.986;2023-07-02T11:07:41;3.05;;;2.15;;
75928;SDS011;64606;44.062;2.986;2023-07-02T11:10:08;11.68;;;2.72;;
75928;SDS011;64606;44.062;2.986;2023-07-02T11:12:34;7.88;;;2.60;;
75928;SDS011;64606;44.062;2.986;2023-07-02T11:15:08;5.93;;;2.25;;
75928;SDS011;64606;44.062;2.986;2023-07-02T11:17:34;5.80;;;2.85;;
75928;SDS011;64606;44.062;2.986;2023-07-02T11:20:02;5.78;;;2.65;;
75928;SDS011;64606;44.062;2.986;2023-07-02T11:22:33;3.20;;;2.08;;
75928;SDS011;64606;44.062;2.986;2023-07-02T11:25:16;4.05;;;2.47;;
75928;SDS011;64606;44.062;2.986;2023-07-02T11:27:42;5.38;;;2.80;;
75928;SDS011;64606;44.062;2.986;2023-07-02T11:30:08;4.90;;;3.00;;
75928;SDS011;64606;44.062;2.986;2023-07-02T11:32:45;4.93;;;2.42;;
75928;SDS011;64606;44.062;2.986;2023-07-02T11:35:13;6.65;;;3.33;;
75928;SDS011;64606;44.062;2.986;2023-07-02T11:37:40;6.38;;;3.00;;
75928;SDS011;64606;44.062;2.986;2023-07-02T11:40:06;6.63;;;3.13;;
75928;SDS011;64606;44.062;2.986;2023-07-02T11:42:33;5.30;;;2.88;;
75928;SDS011;64606;44.062;2.986;2023-07-02T11:44:59;4.63;;;2.60;;
75928;SDS011;64606;44.062;2.986;2023-07-02T11:47:25;4.57;;;2.78;;
75928;SDS011;64606;44.062;2.986;2023-07-02T11:49:52;4.97;;;2.50;;
75928;SDS011;64606;44.062;2.986;2023-07-02T11:52:20;4.78;;;2.90;;
75928;SDS011;64606;44.062;2.986;2023-07-02T11:54:46;6.45;;;3.42;;
75928;SDS011;64606;44.062;2.986;2023-07-02T11:57:12;4.93;;;2.88;;
75928;SDS011;64606;44.062;2.986;2023-07-02T11:59:38;5.85;;;3.38;;
75928;SDS011;64606;44.062;2.986;2023-07-02T12:02:05;5.82;;;3.42;;
75928;SDS011;64606;44.062;2.986;2023-07-02T12:04:31;6.20;;;4.03;;
75928;SDS011;64606;44.062;2.986;2023-07-02T12:06:57;5.93;;;3.63;;
75928;SDS011;64606;44.062;2.986;2023-07-02T12:09:26;7.63;;;4.45;;
75928;SDS011;64606;44.062;2.986;2023-07-02T12:11:52;6.47;;;3.75;;
75928;SDS011;64606;44.062;2.986;2023-07-02T12:14:18;6.65;;;4.38;;
75928;SDS011;64606;44.062;2.986;2023-07-02T12:16:44;7.10;;;4.40;;
75928;SDS011;64606;44.062;2.986;2023-07-02T12:19:11;6.03;;;4.13;;
75928;SDS011;64606;44.062;2.986;2023-07-02T12:21:37;7.82;;;4.20;;
75928;SDS011;64606;44.062;2.986;2023-07-02T12:24:03;8.98;;;4.35;;
75928;SDS011;64606;44.062;2.986;2023-07-02T12:26:34;6.88;;;3.80;;
75928;SDS011;64606;44.062;2.986;2023-07-02T12:29:00;6.40;;;4.22;;
75928;SDS011;64606;44.062;2.986;2023-07-02T12:31:26;6.97;;;3.83;;
75928;SDS011;64606;44.062;2.986;2023-07-02T12:33:52;5.85;;;4.32;;
75928;SDS011;64606;44.062;2.986;2023-07-02T12:36:18;8.82;;;4.50;;
75928;SDS011;64606;44.062;2.986;2023-07-02T12:38:44;6.07;;;3.83;;
75928;SDS011;64606;44.062;2.986;2023-07-02T12:41:10;8.43;;;4.45;;
75928;SDS011;64606;44.062;2.986;2023-07-02T12:43:36;6.63;;;4.25;;
75928;SDS011;64606;44.062;2.986;2023-07-02T12:46:02;6.85;;;4.57;;
75928;SDS011;64606;44.062;2.986;2023-07-02T12:48:29;5.93;;;4.25;;
75928;SDS011;64606;44.062;2.986;2023-07-02T12:50:55;8.05;;;5.28;;
75928;SDS011;64606;44.062;2.986;2023-07-02T12:53:22;8.07;;;4.50;;
75928;SDS011;64606;44.062;2.986;2023-07-02T12:55:48;7.93;;;4.60;;
75928;SDS011;64606;44.062;2.986;2023-07-02T12:58:14;6.47;;;4.10;;
75928;SDS011;64606;44.062;2.986;2023-07-02T13:00:40;9.18;;;4.97;;
75928;SDS011;64606;44.062;2.986;2023-07-02T13:03:10;8.88;;;5.18;;
75928;SDS011;64606;44.062;2.986;2023-07-02T13:05:36;10.80;;;5.10;;
75928;SDS011;64606;44.062;2.986;2023-07-02T13:08:03;8.45;;;5.22;;
75928;SDS011;64606;44.062;2.986;2023-07-02T13:10:29;7.88;;;4.78;;
75928;SDS011;64606;44.062;2.986;2023-07-02T13:12:56;8.65;;;5.30;;
75928;SDS011;64606;44.062;2.986;2023-07-02T13:15:22;8.30;;;5.18;;
75928;SDS011;64606;44.062;2.986;2023-07-02T13:17:48;9.90;;;4.80;;
75928;SDS011;64606;44.062;2.986;2023-07-02T13:20:14;7.03;;;4.32;;
75928;SDS011;64606;44.062;2.986;2023-07-02T13:22:40;7.60;;;4.50;;
75928;SDS011;64606;44.062;2.986;2023-07-02T13:25:06;8.52;;;4.38;;
75928;SDS011;64606;44.062;2.986;2023-07-02T13:27:33;7.70;;;4.57;;
75928;SDS011;64606;44.062;2.986;2023-07-02T13:29:59;8.32;;;4.65;;
75928;SDS011;64606;44.062;2.986;2023-07-02T13:32:25;6.00;;;4.30;;
75928;SDS011;64606;44.062;2.986;2023-07-02T13:34:51;6.82;;;4.25;;
75928;SDS011;64606;44.062;2.986;2023-07-02T13:37:18;8.05;;;4.53;;
75928;SDS011;64606;44.062;2.986;2023-07-02T13:39:44;5.95;;;4.22;;
75928;SDS011;64606;44.062;2.986;2023-07-02T13:42:10;7.72;;;4.63;;
75928;SDS011;64606;44.062;2.986;2023-07-02T13:44:36;6.15;;;3.90;;
75928;SDS011;64606;44.062;2.986;2023-07-02T13:47:03;6.32;;;3.50;;
75928;SDS011;64606;44.062;2.986;2023-07-02T13:49:29;6.10;;;3.72;;
75928;SDS011;64606;44.062;2.986;2023-07-02T13:51:55;6.63;;;3.83;;
75928;SDS011;64606;44.062;2.986;2023-07-02T13:54:22;6.03;;;4.03;;
75928;SDS011;64606;44.062;2.986;2023-07-02T13:56:48;6.63;;;3.90;;
75928;SDS011;64606;44.062;2.986;2023-07-02T13:59:15;6.30;;;3.95;;
75928;SDS011;64606;44.062;2.986;2023-07-02T14:01:41;5.13;;;3.38;;
75928;SDS011;64606;44.062;2.986;2023-07-02T14:04:07;5.10;;;3.45;;
75928;SDS011;64606;44.062;2.986;2023-07-02T14:06:34;5.22;;;3.58;;
75928;SDS011;64606;44.062;2.986;2023-07-02T14:09:00;5.07;;;3.05;;
75928;SDS011;64606;44.062;2.986;2023-07-02T14:11:26;4.65;;;3.47;;
75928;SDS011;64606;44.062;2.986;2023-07-02T14:13:53;5.82;;;3.45;;
75928;SDS011;64606;44.062;2.986;2023-07-02T14:16:19;7.43;;;3.58;;
75928;SDS011;64606;44.062;2.986;2023-07-02T14:18:45;5.65;;;4.20;;
75928;SDS011;64606;44.062;2.986;2023-07-02T14:21:11;6.70;;;4.50;;
75928;SDS011;64606;44.062;2.986;2023-07-02T14:23:37;6.78;;;4.07;;
75928;SDS011;64606;44.062;2.986;2023-07-02T14:26:03;6.93;;;4.80;;
75928;SDS011;64606;44.062;2.986;2023-07-02T14:28:30;8.35;;;4.90;;
75928;SDS011;64606;44.062;2.986;2023-07-02T14:30:57;6.38;;;4.47;;
75928;SDS011;64606;44.062;2.986;2023-07-02T14:33:24;6.15;;;4.53;;
75928;SDS011;64606;44.062;2.986;2023-07-02T14:35:50;6.13;;;4.25;;
75928;SDS011;64606;44.062;2.986;2023-07-02T14:38:16;6.10;;;3.90;;
75928;SDS011;64606;44.062;2.986;2023-07-02T14:40:42;5.15;;;3.80;;
75928;SDS011;64606;44.062;2.986;2023-07-02T14:43:08;5.93;;;3.85;;
75928;SDS011;64606;44.062;2.986;2023-07-02T14:45:35;7.60;;;4.22;;
75928;SDS011;64606;44.062;2.986;2023-07-02T14:48:01;5.22;;;3.30;;
75928;SDS011;64606;44.062;2.986;2023-07-02T14:50:27;4.80;;;3.50;;
75928;SDS011;64606;44.062;2.986;2023-07-02T14:52:53;6.75;;;3.80;;
75928;SDS011;64606;44.062;2.986;2023-07-02T14:55:19;5.22;;;3.50;;
75928;SDS011;64606;44.062;2.986;2023-07-02T14:57:45;6.03;;;3.90;;
75928;SDS011;64606;44.062;2.986;2023-07-02T15:00:11;8.30;;;4.43;;
75928;SDS011;64606;44.062;2.986;2023-07-02T15:02:38;5.32;;;3.53;;
75928;SDS011;64606;44.062;2.986;2023-07-02T15:05:04;6.57;;;3.40;;
75928;SDS011;64606;44.062;2.986;2023-07-02T15:07:30;5.75;;;3.30;;
75928;SDS011;64606;44.062;2.986;2023-07-02T15:09:56;6.63;;;3.60;;
75928;SDS011;64606;44.062;2.986;2023-07-02T15:12:22;5.03;;;3.30;;
75928;SDS011;64606;44.062;2.986;2023-07-02T15:14:49;5.18;;;3.20;;
75928;SDS011;64606;44.062;2.986;2023-07-02T15:17:15;5.15;;;2.83;;
75928;SDS011;64606;44.062;2.986;2023-07-02T15:19:41;5.55;;;3.47;;
75928;SDS011;64606;44.062;2.986;2023-07-02T15:22:07;5.82;;;3.00;;
75928;SDS011;64606;44.062;2.986;2023-07-02T15:24:33;5.93;;;3.20;;
75928;SDS011;64606;44.062;2.986;2023-07-02T15:26:59;4.55;;;3.17;;
75928;SDS011;64606;44.062;2.986;2023-07-02T15:29:26;5.05;;;3.05;;
75928;SDS011;64606;44.062;2.986;2023-07-02T15:31:52;5.32;;;3.17;;
75928;SDS011;64606;44.062;2.986;2023-07-02T15:34:18;6.05;;;3.20;;
75928;SDS011;64606;44.062;2.986;2023-07-02T15:36:44;8.93;;;3.40;;
75928;SDS011;64606;44.062;2.986;2023-07-02T15:39:11;5.55;;;3.58;;
75928;SDS011;64606;44.062;2.986;2023-07-02T15:41:37;7.90;;;3.88;;
75928;SDS011;64606;44.062;2.986;2023-07-02T15:44:05;12.90;;;3.75;;
75928;SDS011;64606;44.062;2.986;2023-07-02T15:46:31;5.20;;;3.40;;
75928;SDS011;64606;44.062;2.986;2023-07-02T15:48:59;4.72;;;3.50;;
75928;SDS011;64606;44.062;2.986;2023-07-02T15:51:27;5.90;;;3.45;;
75928;SDS011;64606;44.062;2.986;2023-07-02T15:53:53;5.55;;;3.70;;
75928;SDS011;64606;44.062;2.986;2023-07-02T15:56:20;8.27;;;4.00;;
75928;SDS011;64606;44.062;2.986;2023-07-02T15:58:47;5.60;;;3.80;;
75928;SDS011;64606;44.062;2.986;2023-07-02T16:01:14;6.53;;;3.80;;
75928;SDS011;64606;44.062;2.986;2023-07-02T16:03:41;7.05;;;3.58;;
75928;SDS011;64606;44.062;2.986;2023-07-02T16:06:07;7.45;;;4.05;;
75928;SDS011;64606;44.062;2.986;2023-07-02T16:08:34;7.05;;;3.90;;
75928;SDS011;64606;44.062;2.986;2023-07-02T16:11:00;7.82;;;3.75;;
75928;SDS011;64606;44.062;2.986;2023-07-02T16:13:26;6.82;;;4.00;;
75928;SDS011;64606;44.062;2.986;2023-07-02T16:15:52;7.20;;;4.00;;
75928;SDS011;64606;44.062;2.986;2023-07-02T16:18:19;6.65;;;3.65;;
75928;SDS011;64606;44.062;2.986;2023-07-02T16:20:53;7.60;;;4.45;;
75928;SDS011;64606;44.062;2.986;2023-07-02T16:23:19;7.10;;;4.10;;
75928;SDS011;64606;44.062;2.986;2023-07-02T16:25:55;5.80;;;3.70;;
75928;SDS011;64606;44.062;2.986;2023-07-02T16:28:22;6.30;;;3.90;;
75928;SDS011;64606;44.062;2.986;2023-07-02T16:30:48;6.55;;;3.75;;
75928;SDS011;64606;44.062;2.986;2023-07-02T16:33:15;7.75;;;3.83;;
75928;SDS011;64606;44.062;2.986;2023-07-02T16:35:41;6.28;;;3.95;;
75928;SDS011;64606;44.062;2.986;2023-07-02T16:38:08;6.43;;;3.65;;
75928;SDS011;64606;44.062;2.986;2023-07-02T16:40:35;6.32;;;3.72;;
75928;SDS011;64606;44.062;2.986;2023-07-02T16:43:01;5.00;;;3.90;;
75928;SDS011;64606;44.062;2.986;2023-07-02T16:45:27;7.65;;;4.10;;
75928;SDS011;64606;44.062;2.986;2023-07-02T16:47:53;6.45;;;3.70;;
75928;SDS011;64606;44.062;2.986;2023-07-02T16:50:20;6.63;;;3.90;;
75928;SDS011;64606;44.062;2.986;2023-07-02T16:52:46;5.80;;;3.85;;
75928;SDS011;64606;44.062;2.986;2023-07-02T16:55:12;6.18;;;4.00;;
75928;SDS011;64606;44.062;2.986;2023-07-02T16:57:38;6.43;;;3.92;;
75928;SDS011;64606;44.062;2.986;2023-07-02T17:00:05;8.63;;;3.97;;
75928;SDS011;64606;44.062;2.986;2023-07-02T17:02:31;9.10;;;4.57;;
75928;SDS011;64606;44.062;2.986;2023-07-02T17:04:57;6.32;;;3.75;;
75928;SDS011;64606;44.062;2.986;2023-07-02T17:07:23;9.30;;;3.75;;
75928;SDS011;64606;44.062;2.986;2023-07-02T17:09:50;7.43;;;4.35;;
75928;SDS011;64606;44.062;2.986;2023-07-02T17:12:17;7.15;;;4.28;;
75928;SDS011;64606;44.062;2.986;2023-07-02T17:14:44;6.72;;;3.75;;
75928;SDS011;64606;44.062;2.986;2023-07-02T17:19:41;6.68;;;4.10;;
75928;SDS011;64606;44.062;2.986;2023-07-02T17:22:09;6.75;;;4.15;;
75928;SDS011;64606;44.062;2.986;2023-07-02T17:24:37;8.00;;;4.22;;
75928;SDS011;64606;44.062;2.986;2023-07-02T17:27:04;6.43;;;3.85;;
75928;SDS011;64606;44.062;2.986;2023-07-02T17:29:30;5.28;;;3.70;;
75928;SDS011;64606;44.062;2.986;2023-07-02T17:31:57;8.13;;;4.00;;
75928;SDS011;64606;44.062;2.986;2023-07-02T17:34:24;7.20;;;4.50;;
75928;SDS011;64606;44.062;2.986;2023-07-02T17:36:51;6.25;;;3.83;;
75928;SDS011;64606;44.062;2.986;2023-07-02T17:39:18;6.68;;;3.78;;
75928;SDS011;64606;44.062;2.986;2023-07-02T17:41:44;5.63;;;3.75;;
75928;SDS011;64606;44.062;2.986;2023-07-02T17:44:11;7.70;;;4.43;;
75928;SDS011;64606;44.062;2.986;2023-07-02T17:46:37;7.57;;;3.85;;
75928;SDS011;64606;44.062;2.986;2023-07-02T17:49:04;6.57;;;3.90;;
75928;SDS011;64606;44.062;2.986;2023-07-02T17:51:31;5.75;;;4.35;;
75928;SDS011;64606;44.062;2.986;2023-07-02T17:53:57;6.32;;;3.70;;
75928;SDS011;64606;44.062;2.986;2023-07-02T17:56:23;7.45;;;4.30;;
75928;SDS011;64606;44.062;2.986;2023-07-02T17:58:51;7.80;;;4.18;;
75928;SDS011;64606;44.062;2.986;2023-07-02T18:01:18;5.60;;;3.70;;
75928;SDS011;64606;44.062;2.986;2023-07-02T18:03:44;6.85;;;4.30;;
75928;SDS011;64606;44.062;2.986;2023-07-02T18:06:10;8.68;;;4.65;;
75928;SDS011;64606;44.062;2.986;2023-07-02T18:08:36;9.43;;;3.92;;
75928;SDS011;64606;44.062;2.986;2023-07-02T18:11:03;6.63;;;4.28;;
75928;SDS011;64606;44.062;2.986;2023-07-02T18:13:29;7.97;;;3.90;;
75928;SDS011;64606;44.062;2.986;2023-07-02T18:15:55;7.13;;;4.03;;
75928;SDS011;64606;44.062;2.986;2023-07-02T18:18:21;7.57;;;4.03;;
75928;SDS011;64606;44.062;2.986;2023-07-02T18:20:47;5.72;;;3.90;;
75928;SDS011;64606;44.062;2.986;2023-07-02T18:23:14;6.20;;;4.28;;
75928;SDS011;64606;44.062;2.986;2023-07-02T18:25:41;8.73;;;4.50;;
75928;SDS011;64606;44.062;2.986;2023-07-02T18:28:08;6.50;;;4.18;;
75928;SDS011;64606;44.062;2.986;2023-07-02T18:30:34;10.10;;;4.82;;
75928;SDS011;64606;44.062;2.986;2023-07-02T18:33:04;7.65;;;4.75;;
75928;SDS011;64606;44.062;2.986;2023-07-02T18:35:33;7.78;;;4.63;;
75928;SDS011;64606;44.062;2.986;2023-07-02T18:38:00;7.32;;;4.07;;
75928;SDS011;64606;44.062;2.986;2023-07-02T18:40:27;11.18;;;5.28;;
75928;SDS011;64606;44.062;2.986;2023-07-02T18:42:53;8.65;;;4.70;;
75928;SDS011;64606;44.062;2.986;2023-07-02T18:45:19;8.82;;;4.90;;
75928;SDS011;64606;44.062;2.986;2023-07-02T18:47:47;6.85;;;4.85;;
75928;SDS011;64606;44.062;2.986;2023-07-02T18:50:14;7.45;;;4.68;;
75928;SDS011;64606;44.062;2.986;2023-07-02T18:52:41;10.32;;;5.53;;
75928;SDS011;64606;44.062;2.986;2023-07-02T18:55:07;11.27;;;5.68;;
75928;SDS011;64606;44.062;2.986;2023-07-02T18:57:33;9.38;;;5.00;;
75928;SDS011;64606;44.062;2.986;2023-07-02T19:00:00;8.13;;;4.85;;
75928;SDS011;64606;44.062;2.986;2023-07-02T19:02:26;9.07;;;5.28;;
75928;SDS011;64606;44.062;2.986;2023-07-02T19:04:52;8.70;;;4.85;;
75928;SDS011;64606;44.062;2.986;2023-07-02T19:07:20;9.77;;;5.05;;
75928;SDS011;64606;44.062;2.986;2023-07-02T19:09:46;8.60;;;4.78;;
75928;SDS011;64606;44.062;2.986;2023-07-02T19:12:12;7.57;;;4.90;;
75928;SDS011;64606;44.062;2.986;2023-07-02T19:14:38;8.82;;;5.22;;
75928;SDS011;64606;44.062;2.986;2023-07-02T19:17:05;10.43;;;5.05;;
75928;SDS011;64606;44.062;2.986;2023-07-02T19:19:32;8.68;;;4.93;;
75928;SDS011;64606;44.062;2.986;2023-07-02T19:21:58;7.85;;;4.38;;
75928;SDS011;64606;44.062;2.986;2023-07-02T19:24:25;11.75;;;5.75;;
75928;SDS011;64606;44.062;2.986;2023-07-02T19:26:51;20.20;;;7.20;;
75928;SDS011;64606;44.062;2.986;2023-07-02T19:29:17;9.40;;;5.40;;
75928;SDS011;64606;44.062;2.986;2023-07-02T19:31:43;7.97;;;5.18;;
75928;SDS011;64606;44.062;2.986;2023-07-02T19:34:13;7.82;;;4.90;;
75928;SDS011;64606;44.062;2.986;2023-07-02T19:36:43;9.77;;;5.07;;
75928;SDS011;64606;44.062;2.986;2023-07-02T19:39:10;9.93;;;5.47;;
75928;SDS011;64606;44.062;2.986;2023-07-02T19:41:36;8.00;;;5.07;;
75928;SDS011;64606;44.062;2.986;2023-07-02T19:44:02;10.20;;;5.50;;
75928;SDS011;64606;44.062;2.986;2023-07-02T19:46:28;9.50;;;5.57;;
75928;SDS011;64606;44.062;2.986;2023-07-02T19:48:55;8.85;;;5.70;;
75928;SDS011;64606;44.062;2.986;2023-07-02T19:51:21;8.32;;;5.32;;
75928;SDS011;64606;44.062;2.986;2023-07-02T19:53:48;9.98;;;5.70;;
75928;SDS011;64606;44.062;2.986;2023-07-02T19:56:14;8.35;;;5.45;;
75928;SDS011;64606;44.062;2.986;2023-07-02T19:58:40;13.35;;;6.18;;
75928;SDS011;64606;44.062;2.986;2023-07-02T20:01:10;9.68;;;5.70;;
75928;SDS011;64606;44.062;2.986;2023-07-02T20:03:36;10.38;;;5.82;;
75928;SDS011;64606;44.062;2.986;2023-07-02T20:06:03;9.88;;;6.43;;
75928;SDS011;64606;44.062;2.986;2023-07-02T20:08:29;9.75;;;6.13;;
75928;SDS011;64606;44.062;2.986;2023-07-02T20:10:55;11.40;;;5.70;;
75928;SDS011;64606;44.062;2.986;2023-07-02T20:13:21;10.30;;;5.80;;
75928;SDS011;64606;44.062;2.986;2023-07-02T20:15:47;8.70;;;5.93;;
75928;SDS011;64606;44.062;2.986;2023-07-02T20:18:14;12.02;;;5.85;;
75928;SDS011;64606;44.062;2.986;2023-07-02T20:20:40;10.57;;;6.40;;
75928;SDS011;64606;44.062;2.986;2023-07-02T20:23:06;14.25;;;6.80;;
75928;SDS011;64606;44.062;2.986;2023-07-02T20:25:36;8.55;;;5.53;;
75928;SDS011;64606;44.062;2.986;2023-07-02T20:28:02;10.68;;;6.10;;
75928;SDS011;64606;44.062;2.986;2023-07-02T20:30:29;10.73;;;6.25;;
75928;SDS011;64606;44.062;2.986;2023-07-02T20:32:55;9.23;;;5.82;;
75928;SDS011;64606;44.062;2.986;2023-07-02T20:35:21;14.82;;;6.00;;
75928;SDS011;64606;44.062;2.986;2023-07-02T20:37:50;10.73;;;5.82;;
75928;SDS011;64606;44.062;2.986;2023-07-02T20:40:16;10.88;;;5.82;;
75928;SDS011;64606;44.062;2.986;2023-07-02T20:42:43;12.82;;;6.40;;
75928;SDS011;64606;44.062;2.986;2023-07-02T20:45:09;10.18;;;6.03;;
75928;SDS011;64606;44.062;2.986;2023-07-02T20:47:37;10.35;;;6.40;;
75928;SDS011;64606;44.062;2.986;2023-07-02T20:50:14;10.23;;;6.22;;
75928;SDS011;64606;44.062;2.986;2023-07-02T20:52:41;9.75;;;5.90;;
75928;SDS011;64606;44.062;2.986;2023-07-02T20:55:09;11.98;;;6.32;;
75928;SDS011;64606;44.062;2.986;2023-07-02T20:57:35;9.65;;;5.75;;
75928;SDS011;64606;44.062;2.986;2023-07-02T21:00:02;10.65;;;5.82;;
75928;SDS011;64606;44.062;2.986;2023-07-02T21:02:33;10.63;;;6.47;;
75928;SDS011;64606;44.062;2.986;2023-07-02T21:04:59;9.55;;;5.43;;
75928;SDS011;64606;44.062;2.986;2023-07-02T21:07:25;11.98;;;6.07;;
75928;SDS011;64606;44.062;2.986;2023-07-02T21:09:52;9.65;;;5.55;;
75928;SDS011;64606;44.062;2.986;2023-07-02T21:12:18;11.13;;;5.97;;
75928;SDS011;64606;44.062;2.986;2023-07-02T21:14:44;13.52;;;6.20;;
75928;SDS011;64606;44.062;2.986;2023-07-02T21:17:14;11.25;;;6.15;;
75928;SDS011;64606;44.062;2.986;2023-07-02T21:19:40;12.18;;;6.38;;
75928;SDS011;64606;44.062;2.986;2023-07-02T21:22:06;11.52;;;6.63;;
75928;SDS011;64606;44.062;2.986;2023-07-02T21:24:33;10.32;;;5.90;;
75928;SDS011;64606;44.062;2.986;2023-07-02T21:26:59;11.38;;;6.40;;
75928;SDS011;64606;44.062;2.986;2023-07-02T21:29:25;14.18;;;7.13;;
75928;SDS011;64606;44.062;2.986;2023-07-02T21:31:52;10.15;;;6.05;;
75928;SDS011;64606;44.062;2.986;2023-07-02T21:34:18;13.02;;;6.13;;
75928;SDS011;64606;44.062;2.986;2023-07-02T21:36:44;11.40;;;6.10;;
75928;SDS011;64606;44.062;2.986;2023-07-02T21:39:10;10.15;;;6.20;;
75928;SDS011;64606;44.062;2.986;2023-07-02T21:41:36;9.20;;;6.10;;
75928;SDS011;64606;44.062;2.986;2023-07-02T21:44:02;10.90;;;6.20;;
75928;SDS011;64606;44.062;2.986;2023-07-02T21:46:29;11.45;;;6.38;;
75928;SDS011;64606;44.062;2.986;2023-07-02T21:48:55;12.23;;;6.75;;
75928;SDS011;64606;44.062;2.986;2023-07-02T21:51:21;11.23;;;6.80;;
75928;SDS011;64606;44.062;2.986;2023-07-02T21:53:48;10.60;;;6.47;;
75928;SDS011;64606;44.062;2.986;2023-07-02T21:56:14;10.77;;;6.35;;
75928;SDS011;64606;44.062;2.986;2023-07-02T21:58:41;10.85;;;6.57;;
75928;SDS011;64606;44.062;2.986;2023-07-02T22:01:08;11.88;;;6.70;;
75928;SDS011;64606;44.062;2.986;2023-07-02T22:03:35;10.35;;;6.80;;
75928;SDS011;64606;44.062;2.986;2023-07-02T22:06:01;10.30;;;6.50;;
75928;SDS011;64606;44.062;2.986;2023-07-02T22:08:27;11.77;;;6.35;;
75928;SDS011;64606;44.062;2.986;2023-07-02T22:10:53;12.02;;;6.40;;
75928;SDS011;64606;44.062;2.986;2023-07-02T22:13:19;10.57;;;6.38;;
75928;SDS011;64606;44.062;2.986;2023-07-02T22:15:46;11.05;;;6.22;;
75928;SDS011;64606;44.062;2.986;2023-07-02T22:18:12;9.40;;;6.45;;
75928;SDS011;64606;44.062;2.986;2023-07-02T22:20:38;10.30;;;6.53;;
75928;SDS011;64606;44.062;2.986;2023-07-02T22:23:06;10.63;;;6.53;;
75928;SDS011;64606;44.062;2.986;2023-07-02T22:25:32;10.88;;;6.45;;
75928;SDS011;64606;44.062;2.986;2023-07-02T22:27:59;12.02;;;6.95;;
75928;SDS011;64606;44.062;2.986;2023-07-02T22:30:25;13.05;;;6.82;;
75928;SDS011;64606;44.062;2.986;2023-07-02T22:32:51;13.95;;;6.65;;
75928;SDS011;64606;44.062;2.986;2023-07-02T22:35:18;10.07;;;6.28;;
75928;SDS011;64606;44.062;2.986;2023-07-02T22:37:44;13.70;;;7.00;;
75928;SDS011;64606;44.062;2.986;2023-07-02T22:40:11;11.13;;;6.30;;
75928;SDS011;64606;44.062;2.986;2023-07-02T22:42:38;9.93;;;6.78;;
75928;SDS011;64606;44.062;2.986;2023-07-02T22:45:08;12.50;;;6.70;;
75928;SDS011;64606;44.062;2.986;2023-07-02T22:47:35;11.07;;;6.32;;
75928;SDS011;64606;44.062;2.986;2023-07-02T22:50:01;11.00;;;6.82;;
75928;SDS011;64606;44.062;2.986;2023-07-02T22:52:27;10.27;;;6.00;;
75928;SDS011;64606;44.062;2.986;2023-07-02T22:54:54;13.02;;;6.90;;
75928;SDS011;64606;44.062;2.986;2023-07-02T22:57:21;10.15;;;6.30;;
75928;SDS011;64606;44.062;2.986;2023-07-02T22:59:47;11.52;;;6.60;;
75928;SDS011;64606;44.062;2.986;2023-07-02T23:02:13;9.93;;;6.40;;
75928;SDS011;64606;44.062;2.986;2023-07-02T23:04:39;11.57;;;6.80;;
75928;SDS011;64606;44.062;2.986;2023-07-02T23:07:06;9.30;;;6.32;;
75928;SDS011;64606;44.062;2.986;2023-07-02T23:09:32;13.02;;;6.15;;
75928;SDS011;64606;44.062;2.986;2023-07-02T23:11:58;9.73;;;6.38;;